Weather observations for the past three days for
Kearney, Kearney Municipal Airport
Metric (Imperial)
Date Time (cdt) Wind (kph) Vis. (km) Weather Sky Cond. Temperature (ºC) Relative Humidity Wind Chill (°C) Heat Index (°C) Pressure Precipitation (cm)
Air Dwpt 6 hour altimeter (cm) sea level (mb) 1 hr 3 hr 6 hr
Max. Min.
05 05:56 S 11 16.09 Fair CLR 21.7 18.9 84% 75.97 1010.6
05 04:56 S 13 16.09 Fair CLR 21.7 18.9 84% 75.97 1010.5
05 03:56 SE 6 16.09 Fair CLR 20 18.9 93% 76.02 1011.3
05 02:56 SE 9 16.09 Fair CLR 21.1 18.9 87% 76.05 1011.8
05 01:56 S 11 16.09 Fair CLR 21.7 19.4 87% 76.05 1011.8
05 00:56 S 11 16.09 Fair CLR 23.3 19.4 31.1 23.3 79% 76.05 1011.7
04 23:56 SE 15 16.09 Fair CLR 25 19.4 71% 26 76.02 1011.4
04 22:56 S 19 16.09 Fair CLR 25.6 20 71% 27 76.02 1011.3
04 21:56 SE 13 16.09 Fair CLR 25.6 21.7 79% 27 76 1011.0
04 20:56 SE 9 16.09 Fair CLR 27.2 23.3 79% 30 75.95 1010.3
04 19:56 E 13 16.09 Fair CLR 28.9 24.4 77% 34 75.92 1010.2
04 18:56 E 15 16.09 Fair CLR 31.1 25 33.3 27.8 70% 38 75.95 1010.3
04 17:56 E 15 16.09 Fair CLR 32.2 23.9 62% 38 75.95 1010.3
04 16:56 E 13 16.09 Thunderstorm in Vicinity CLR 32.2 22.2 56% 36 75.95 1010.3
04 15:56 E 17 16.09 Fair CLR 32.2 21.7 54% 36 75.95 1010.2
04 14:56 E 17 16.09 Fair CLR 30 23.3 67% 34 75.97 1010.6
04 13:56 E 13 16.09 Fair CLR 28.9 22.8 70% 32 76 1011.1
04 12:56 Calm 16.09 Fair CLR 27.8 21.7 28.9 20.6 69% 30 76.07 1012.1
04 11:56 SE 9 16.09 Light Rain FEW070 27.2 21.1 69% 29 76.05 1011.8
04 10:56 S 13 16.09 Fair CLR 27.8 20.6 65% 30 76.02 1011.3
04 09:56 S 13 16.09 Fair CLR 27.8 20.6 65% 30 76.02 1011.2
04 08:56 S 11 16.09 Fair CLR 25 20.6 77% 26 76.02 1011.3
04 07:56 Calm 16.09 Fair CLR 21.1 19.4 90% 76 1011.1
04 06:56 Calm 16.09 Fair CLR 20.6 18.3 25 19.4 87% 75.95 1010.3
04 05:56 S 11 16.09 Fair CLR 20.6 18.9 90% 75.92 1009.8
04 04:56 S 7 16.09 Fair CLR 21.1 18.9 87% 75.92 1009.8
04 03:56 S 13 16.09 Fair CLR 22.2 19.4 84% 75.9 1009.3
04 02:56 S 13 16.09 Fair CLR 21.7 18.9 84% 75.9 1009.4
04 01:56 W 6 16.09 Fair CLR 23.9 20 79% 24 75.9 1009.2
04 00:56 SW 7 16.09 Fair CLR 21.7 20 32.2 21.7 90% 75.87 1009.2
03 23:56 Calm 16.09 Fair CLR 24.4 20.6 79% 25 75.82 1008.5
03 22:56 Calm 16.09 Fair CLR 25 20.6 77% 26 75.84 1008.7
03 21:56 N 7 16.09 Fair CLR 26.1 20.6 72% 28 75.82 1008.5
03 20:56 N 9 16.09 Fair CLR 26.1 21.7 77% 28 75.77 1008.0
03 19:56 N 11 16.09 Fair CLR 27.8 22.2 72% 30 75.72 1007.4
03 18:56 N 15 16.09 Fair CLR 32.2 21.1 35.6 31.1 52% 35 75.69 1006.7
03 17:56 SW 6 16.09 Fair CLR 35.6 17.2 34% 36 75.67 1006.2
03 16:56 SW 11 16.09 Fair CLR 35 17.8 36% 36 75.67 1006.3
03 15:56 S 20 G 28 16.09 Fair CLR 34.4 18.9 40% 36 75.69 1006.4
03 14:56 S 24 16.09 Fair CLR 33.9 19.4 42% 36 75.72 1006.8
03 13:56 S 19 16.09 Fair CLR 32.2 18.9 45% 34 75.77 1007.6
03 12:56 S 24 16.09 Fair CLR 31.1 18.9 31.7 22.2 48% 32 75.82 1008.1
03 11:56 S 22 16.09 Fair CLR 30.6 18.3 48% 32 75.82 1008.4
03 10:56 S 26 16.09 Fair CLR 29.4 18.3 51% 30 75.82 1008.2
03 09:56 S 19 16.09 Fair CLR 27.2 18.3 58% 28 75.79 1008.3
03 08:56 S 11 16.09 Fair CLR 25 17.2 62% 26 75.84 1008.9
03 07:56 S 13 16.09 Fair CLR 22.8 16.7 69% 75.84 1008.8
03 06:56 SW 11 16.09 Fair CLR 22.2 16.1 27.2 22.2 68% 75.82 1008.5
03 05:56 S 13 16.09 Fair CLR 22.2 16.7 71% 75.79 1008.1
03 04:56 S 17 16.09 Fair CLR 22.2 16.7 71% 75.79 1007.9
03 03:56 S 19 16.09 Fair CLR 23.3 16.7 67% 75.79 1008.0
03 02:56 S 26 16.09 Fair CLR 25.6 16.1 56% 26 75.77 1007.6
03 01:56 S 26 16.09 Fair CLR 26.1 16.1 54% 27 75.77 1007.6
03 00:56 S 24 16.09 Fair CLR 27.2 16.1 32.2 26.1 51% 28 75.77 1007.5
02 23:56 S 26 16.09 Fair CLR 26.7 16.1 52% 27 75.77 1007.7
02 22:56 SE 24 16.09 Fair CLR 26.7 16.7 54% 27 75.77 1007.6
02 21:56 SE 19 16.09 A Few Clouds FEW100 26.7 17.8 58% 28 75.74 1007.6
02 20:56 SE 15 16.09 Partly Cloudy SCT110 27.8 18.9 58% 29 75.72 1007.4
02 19:56 SE 11 16.09 Mostly Cloudy BKN100 31.1 20.6 54% 34 75.69 1007.0
02 18:56 E 11 16.09 A Few Clouds FEW100 32.2 22.8 35.6 31.7 58% 37 75.72 1007.2
02 17:56 E 19 16.09 Fair CLR 35 21.1 44% 39 75.74 1007.1
02 16:56 SE 11 16.09 Fair CLR 35 19.4 40% 37 75.77 1007.6
02 15:56 SE 9 16.09 Fair CLR 35 19.4 40% 37 75.84 1008.5
02 14:56 S 20 16.09 Fair CLR 33.9 18.9 41% 36 75.9 1009.3
02 13:56 S 20 16.09 Fair CLR 32.8 20 47% 35 75.92 1009.8
02 12:56 S 19 16.09 Fair CLR 31.7 19.4 32.2 18.9 48% 33 75.97 1010.4
02 11:56 SW 13 16.09 Fair CLR 29.4 18.9 53% 31 76 1010.9
02 10:56 S 22 16.09 Fair CLR 28.3 18.3 55% 29 76 1010.9
02 09:56 S 17 16.09 Fair CLR 26.7 17.8 58% 28 76 1011.1
02 08:56 S 11 16.09 Fair CLR 23.3 17.8 71% 76.02 1011.6
02 07:56 S 9 16.09 Fair CLR 20.6 17.2 81% 76.02 1011.4
Date Time (cdt) Wind (kph) Vis. (km) Weather Sky Cond. Air Dwpt Max. Min. Relative Humidity Wind Chill (°C) Heat Index (°C) altimeter (cm) sea level (mb) 1 hr 3 hr 6 hr
6 hour
Temperature (ºC) Pressure Precipitation (cm)